Rechercher aéroport 
image banner adimage banner adimage banner ad
image banner ad

27CL - Sopwith Farm

Situé à Pleasant Grove, United States

ICAO - 27CL, IATA -

Données fournies par Airmate  

Information générale

Coordonnées: N38°44'50" W121°34'22"
Élévation : 20 feet MSL.
Variation magnétique : 16° East
Voir autres Aéroports à California

Données opérationnelles

Special qualification required
Heure actuelle UTC:
Heure actuelle locale:
Météo à : KSMF - Sacramento Intl ( 6 km )
METAR: KSMF 212353Z VRB03KT 10SM CLR 34/08 A3001 RMK AO2 SLP161 T03440078 10350 20256 56016
TAF: KSMF 212320Z 2200/2224 VRB05KT P6SM SKC FM222100 20009KT P6SM FEW250
Voir NOTAMs / SUP AIP / TFR affectant cet aéroport [VIEW]
Fréquences de communication: [VIEW]

Pistes:

Identifiant RWYQFULongueur (ft)Largeur (ft)SurfaceLDA (ft)
16200060OTHER
34200060OTHER

Coordonnées de l'aéroport

Adresse: Pleasant Grove United States

Vue satellite de 27CL